Time;durP1;ratioP1;P1;durP2;ratioP2;P2;SDS_P1;SDS_P2;PMS_P1;PMS_P2;Temp;Humidity;BMP_temperature;BMP_pressure;BME280_temperature;BME280_humidity;BME280_pressure;Samples;Min_cycle;Max_cycle;Signal;HPM_P1;HPM_P2
2022/06/09 00:01:24;;;;;;;;;;;;;;;;;;5113202;28;935;-67
2022/06/09 00:03:49;;;;;;;;;;;;;;;;;;5112204;28;1337;-67
2022/06/09 00:06:15;;;;;;;;;;;;;;;;;;5113171;28;773;-67
2022/06/09 00:08:43;;;;;;;;;;;;;;;;;;5112544;28;825;-67
2022/06/09 00:11:12;;;;;;;;;;;;;;;;;;5112380;28;1012;-66
2022/06/09 00:13:38;;;;;;;;;;;;;;;;;;5112624;28;777;-67
2022/06/09 00:16:04;;;;;;;;;;;;;;;;;;5112125;28;653;-67
2022/06/09 00:18:30;;;;;;;;;;;;;;;;;;5109991;28;1890;-67
2022/06/09 00:20:55;;;;;;;;;;;;;;;;;;5112666;28;773;-67
2022/06/09 00:23:20;;;;;;;;;;;;;;;;;;5110651;28;1305;-66
2022/06/09 00:25:46;;;;;;;;;;;;;;;;;;5093837;28;1219;-66
2022/06/09 00:28:12;;;;;;;;;;;;;;;;;;5112121;28;923;-66
2022/06/09 00:30:37;;;;;;;;;;;;;;;;;;5112122;28;879;-66
2022/06/09 00:33:02;;;;;;;;;;;;;;;;;;5111841;28;1009;-67
2022/06/09 00:35:27;;;;;;;;;;;;;;;;;;5111069;28;883;-66
2022/06/09 00:37:53;;;;;;;;;;;;;;;;;;5110717;28;1914;-66
2022/06/09 00:40:18;;;;;;;;;;;;;;;;;;5111773;28;887;-66
2022/06/09 00:42:43;;;;;;;;;;;;;;;;;;5111758;28;1065;-66
2022/06/09 00:45:24;;;;;;;;;;;;;;;;;;5111794;28;990;-66
2022/06/09 00:47:50;;;;;;;;;;;;;;;;;;5111779;28;873;-66
2022/06/09 00:50:17;;;;;;;;;;;;;;;;;;5111752;28;980;-66
2022/06/09 00:52:46;;;;;;;;;;;;;;;;;;5111713;28;891;-65
2022/06/09 00:55:14;;;;;;;;;;;;;;;;;;5109902;28;1280;-65
2022/06/09 00:57:45;;;;;;;;;;;;;;;;;;5111727;28;1952;-65
2022/06/09 01:00:13;;;;;;;;;;;;;;;;;;5111871;28;891;-66
2022/06/09 01:02:40;;;;;;;;;;;;;;;;;;5110735;28;1116;-65
2022/06/09 01:05:05;;;;;;;;;;;;;;;;;;5111599;28;793;-66
2022/06/09 01:07:37;;;;;;;;;;;;;;;;;;5111343;28;837;-65
2022/06/09 01:10:03;;;;;;;;;;;;;;;;;;5111442;28;1003;-65
2022/06/09 01:12:36;;;;;;;;;;;;;;;;;;5111396;28;962;-66
2022/06/09 01:15:06;;;;;;;;;;;;;;;;;;5111019;28;840;-66
2022/06/09 01:17:42;;;;;;;;;;;;;;;;;;5110967;28;1909;-66
2022/06/09 01:20:08;;;;;;;;;;;;;;;;;;5110816;28;923;-66
2022/06/09 01:22:47;;;;;;;;;;;;;;;;;;5111365;28;903;-66
2022/06/09 01:25:12;;;;;;;;;;;;;;;;;;5111216;28;859;-65
2022/06/09 01:27:56;;;;;;;;;;;;;;;;;;5112051;28;986;-66
2022/06/09 01:30:34;;;;;;;;;;;;;;;;;;5112091;28;900;-66
2022/06/09 01:33:05;;;;;;;;;;;;;;;;;;5112031;28;792;-66
2022/06/09 01:35:51;;;;;;;;;;;;;;;;;;5112005;28;1002;-66
2022/06/09 01:38:16;;;;;;;;;;;;;;;;;;5110126;28;1906;-66
2022/06/09 01:40:42;;;;;;;;;;;;;;;;;;5111526;28;954;-65
2022/06/09 01:43:08;;;;;;;;;;;;;;;;;;5110484;28;876;-66
2022/06/09 01:45:49;;;;;;;;;;;;;;;;;;5111683;28;955;-66
2022/06/09 01:48:18;;;;;;;;;;;;;;;;;;5111910;28;837;-67
2022/06/09 01:50:44;;;;;;;;;;;;;;;;;;5110030;28;1324;-66
2022/06/09 01:53:12;;;;;;;;;;;;;;;;;;5111255;28;840;-67
2022/06/09 01:55:41;;;;;;;;;;;;;;;;;;5111365;28;918;-66
2022/06/09 01:58:09;;;;;;;;;;;;;;;;;;5109890;28;1886;-66
2022/06/09 02:00:36;;;;;;;;;;;;;;;;;;5112230;28;896;-66
2022/06/09 02:03:04;;;;;;;;;;;;;;;;;;5112042;28;828;-66
2022/06/09 02:05:32;;;;;;;;;;;;;;;;;;5111815;28;832;-66
2022/06/09 02:07:59;;;;;;;;;;;;;;;;;;5111579;28;913;-66
2022/06/09 02:10:28;;;;;;;;;;;;;;;;;;5111995;28;1052;-66
2022/06/09 02:12:53;;;;;;;;;;;;;;;;;;5110145;28;1272;-66
2022/06/09 02:15:21;;;;;;;;;;;;;;;;;;5112351;28;891;-66
2022/06/09 02:17:48;;;;;;;;;;;;;;;;;;5111564;28;1906;-66
2022/06/09 02:20:14;;;;;;;;;;;;;;;;;;5112247;28;939;-65
2022/06/09 02:22:40;;;;;;;;;;;;;;;;;;5111806;28;923;-66
2022/06/09 02:25:05;;;;;;;;;;;;;;;;;;5110937;28;1246;-66
2022/06/09 02:27:30;;;;;;;;;;;;;;;;;;5114792;28;957;-66
2022/06/09 02:29:55;;;;;;;;;;;;;;;;;;5115573;28;934;-66
2022/06/09 02:32:21;;;;;;;;;;;;;;;;;;5097808;28;1046;-66
2022/06/09 02:34:46;;;;;;;;;;;;;;;;;;5095622;28;1338;-66
2022/06/09 02:37:11;;;;;;;;;;;;;;;;;;5114104;28;1914;-67
2022/06/09 02:39:37;;;;;;;;;;;;;;;;;;5113012;28;903;-66
2022/06/09 02:42:02;;;;;;;;;;;;;;;;;;5113983;28;828;-67
2022/06/09 02:44:28;;;;;;;;;;;;;;;;;;5114540;28;907;-67
2022/06/09 02:46:53;;;;;;;;;;;;;;;;;;5112612;28;816;-66
2022/06/09 02:49:18;;;;;;;;;;;;;;;;;;5112701;28;750;-67
2022/06/09 02:51:43;;;;;;;;;;;;;;;;;;5113638;28;860;-67
2022/06/09 02:54:11;;;;;;;;;;;;;;;;;;5112418;28;986;-66
2022/06/09 02:56:37;;;;;;;;;;;;;;;;;;5114004;28;1905;-66
2022/06/09 02:59:02;;;;;;;;;;;;;;;;;;5113575;28;836;-66
2022/06/09 03:01:31;;;;;;;;;;;;;;;;;;5095930;28;1178;-67
2022/06/09 03:03:57;;;;;;;;;;;;;;;;;;5114297;28;911;-66
2022/06/09 03:06:22;;;;;;;;;;;;;;;;;;5113709;27;1054;-67
2022/06/09 03:08:47;;;;;;;;;;;;;;;;;;5114070;28;907;-67
2022/06/09 03:11:13;;;;;;;;;;;;;;;;;;5113519;28;1058;-66
2022/06/09 03:13:39;;;;;;;;;;;;;;;;;;5113055;28;789;-67
2022/06/09 03:16:04;;;;;;;;;;;;;;;;;;5113324;28;995;-67
2022/06/09 03:18:30;;;;;;;;;;;;;;;;;;5113309;28;1901;-67
2022/06/09 03:20:55;;;;;;;;;;;;;;;;;;5113822;28;1022;-66
2022/06/09 03:23:20;;;;;;;;;;;;;;;;;;5113277;28;935;-66
2022/06/09 03:25:46;;;;;;;;;;;;;;;;;;5112310;28;836;-67
2022/06/09 03:28:11;;;;;;;;;;;;;;;;;;5094904;28;1198;-67
2022/06/09 03:30:37;;;;;;;;;;;;;;;;;;5112904;28;844;-66
2022/06/09 03:33:02;;;;;;;;;;;;;;;;;;5113321;28;991;-67
2022/06/09 03:35:28;;;;;;;;;;;;;;;;;;5112591;28;793;-67
2022/06/09 03:37:53;;;;;;;;;;;;;;;;;;5111960;28;1949;-66
2022/06/09 03:40:19;;;;;;;;;;;;;;;;;;5112390;28;856;-67
2022/06/09 03:42:45;;;;;;;;;;;;;;;;;;5113651;28;825;-67
2022/06/09 03:45:10;;;;;;;;;;;;;;;;;;5111940;28;1214;-66
2022/06/09 03:47:35;;;;;;;;;;;;;;;;;;5112381;28;939;-67
2022/06/09 03:50:01;;;;;;;;;;;;;;;;;;5112766;28;974;-66
2022/06/09 03:52:26;;;;;;;;;;;;;;;;;;5111856;28;1011;-66
2022/06/09 03:54:51;;;;;;;;;;;;;;;;;;5112968;28;908;-66
2022/06/09 03:57:18;;;;;;;;;;;;;;;;;;5110933;28;1910;-66
2022/06/09 03:59:43;;;;;;;;;;;;;;;;;;5112876;27;1026;-67
2022/06/09 04:02:09;;;;;;;;;;;;;;;;;;5111485;28;1245;-67
2022/06/09 04:04:34;;;;;;;;;;;;;;;;;;5113089;28;743;-66
2022/06/09 04:06:59;;;;;;;;;;;;;;;;;;5111277;28;793;-67
2022/06/09 04:09:24;;;;;;;;;;;;;;;;;;5111450;28;1219;-67
2022/06/09 04:11:49;;;;;;;;;;;;;;;;;;5111581;28;994;-67
2022/06/09 04:14:15;;;;;;;;;;;;;;;;;;5110518;28;785;-67
2022/06/09 04:16:44;;;;;;;;;;;;;;;;;;5112393;28;1898;-67
2022/06/09 04:19:10;;;;;;;;;;;;;;;;;;5110545;28;876;-67
2022/06/09 04:21:36;;;;;;;;;;;;;;;;;;5111001;28;1390;-66
2022/06/09 04:24:02;;;;;;;;;;;;;;;;;;5112342;28;730;-67
2022/06/09 04:26:28;;;;;;;;;;;;;;;;;;5111980;28;856;-67
2022/06/09 04:28:54;;;;;;;;;;;;;;;;;;5112041;28;947;-67
2022/06/09 04:31:19;;;;;;;;;;;;;;;;;;5111708;28;958;-67
2022/06/09 04:33:45;;;;;;;;;;;;;;;;;;5110484;28;1265;-67
2022/06/09 04:36:11;;;;;;;;;;;;;;;;;;5111648;28;848;-66
2022/06/09 04:38:37;;;;;;;;;;;;;;;;;;5112075;28;1986;-67
2022/06/09 04:41:03;;;;;;;;;;;;;;;;;;5112732;28;958;-66
2022/06/09 04:43:29;;;;;;;;;;;;;;;;;;5113569;28;1364;-67
2022/06/09 04:45:54;;;;;;;;;;;;;;;;;;5114764;28;828;-66
2022/06/09 04:48:19;;;;;;;;;;;;;;;;;;5110045;28;1190;-66
2022/06/09 04:50:45;;;;;;;;;;;;;;;;;;5111339;28;1097;-66
2022/06/09 04:53:10;;;;;;;;;;;;;;;;;;5111207;28;851;-65
2022/06/09 04:55:36;;;;;;;;;;;;;;;;;;5110827;28;1273;-66
2022/06/09 04:58:02;;;;;;;;;;;;;;;;;;5106696;28;1910;-65
2022/06/09 05:00:27;;;;;;;;;;;;;;;;;;5106629;28;1159;-65
2022/06/09 05:02:54;;;;;;;;;;;;;;;;;;5089638;28;1139;-66
2022/06/09 05:05:21;;;;;;;;;;;;;;;;;;5109644;28;1203;-65
2022/06/09 05:07:46;;;;;;;;;;;;;;;;;;5110389;28;1186;-66
2022/06/09 05:10:11;;;;;;;;;;;;;;;;;;5111526;28;1136;-66
2022/06/09 05:12:37;;;;;;;;;;;;;;;;;;5110851;28;762;-66
2022/06/09 05:15:03;;;;;;;;;;;;;;;;;;5110062;28;1364;-66
2022/06/09 05:17:28;;;;;;;;;;;;;;;;;;5111660;28;1969;-66
2022/06/09 05:19:54;;;;;;;;;;;;;;;;;;5111485;28;794;-66
2022/06/09 05:22:19;;;;;;;;;;;;;;;;;;5110270;28;903;-66
2022/06/09 05:24:44;;;;;;;;;;;;;;;;;;5110356;28;1203;-65
2022/06/09 05:27:11;;;;;;;;;;;;;;;;;;5109924;28;1292;-66
2022/06/09 05:29:36;;;;;;;;;;;;;;;;;;5112246;28;909;-66
2022/06/09 05:32:03;;;;;;;;;;;;;;;;;;5110541;28;907;-66
2022/06/09 05:34:30;;;;;;;;;;;;;;;;;;5112306;28;914;-66
2022/06/09 05:36:55;;;;;;;;;;;;;;;;;;5110395;28;1914;-66
2022/06/09 05:44:51;;;;;;;;;;;;;;;;;;5111158;28;622;-66
2022/06/09 05:47:19;;;;;;;;;;;;;;;;;;5110878;28;848;-66
2022/06/09 05:49:44;;;;;;;;;;;;;;;;;;5109191;28;1210;-66
2022/06/09 05:52:09;;;;;;;;;;;;;;;;;;5110982;28;895;-66
2022/06/09 05:54:35;;;;;;;;;;;;;;;;;;5111084;28;840;-66
2022/06/09 05:57:00;;;;;;;;;;;;;;;;;;5111123;28;1902;-66
2022/06/09 05:59:25;;;;;;;;;;;;;;;;;;5110814;28;825;-66
2022/06/09 06:01:52;;;;;;;;;;;;;;;;;;5112409;28;915;-66
2022/06/09 06:04:17;;;;;;;;;;;;;;;;;;5114316;28;860;-66
2022/06/09 06:06:43;;;;;;;;;;;;;;;;;;5115047;28;839;-66
2022/06/09 06:09:13;;;;;;;;;;;;;;;;;;5114983;28;907;-66
2022/06/09 06:11:38;;;;;;;;;;;;;;;;;;5113554;28;1328;-66
2022/06/09 06:14:04;;;;;;;;;;;;;;;;;;5114851;28;899;-66
2022/06/09 06:16:29;;;;;;;;;;;;;;;;;;5114383;28;1898;-67
2022/06/09 06:18:55;;;;;;;;;;;;;;;;;;5113907;28;1104;-66
2022/06/09 06:21:21;;;;;;;;;;;;;;;;;;5114602;28;824;-66
2022/06/09 06:23:46;;;;;;;;;;;;;;;;;;5115017;28;816;-66
2022/06/09 06:26:12;;;;;;;;;;;;;;;;;;5112930;28;1158;-66
2022/06/09 06:28:37;;;;;;;;;;;;;;;;;;5114328;28;852;-66
2022/06/09 06:31:03;;;;;;;;;;;;;;;;;;5112603;28;1174;-66
2022/06/09 06:33:28;;;;;;;;;;;;;;;;;;5112459;28;817;-66
2022/06/09 06:35:53;;;;;;;;;;;;;;;;;;5113263;28;1155;-66
2022/06/09 06:38:19;;;;;;;;;;;;;;;;;;5113446;28;1891;-66
2022/06/09 06:40:44;;;;;;;;;;;;;;;;;;5114032;28;859;-66
2022/06/09 06:43:09;;;;;;;;;;;;;;;;;;5114092;28;994;-66
2022/06/09 06:45:35;;;;;;;;;;;;;;;;;;5113828;28;829;-66
2022/06/09 06:48:00;;;;;;;;;;;;;;;;;;5112756;28;1382;-66
2022/06/09 06:50:25;;;;;;;;;;;;;;;;;;5113541;28;835;-66
2022/06/09 06:52:51;;;;;;;;;;;;;;;;;;5112551;28;606;-67
2022/06/09 06:55:18;;;;;;;;;;;;;;;;;;5114309;27;1149;-67
2022/06/09 06:57:43;;;;;;;;;;;;;;;;;;5112753;28;1902;-66
2022/06/09 07:00:10;;;;;;;;;;;;;;;;;;5114358;28;954;-66
2022/06/09 07:02:35;;;;;;;;;;;;;;;;;;5114336;28;829;-66
2022/06/09 07:05:00;;;;;;;;;;;;;;;;;;5113241;28;887;-66
2022/06/09 07:07:25;;;;;;;;;;;;;;;;;;5114050;28;816;-66
2022/06/09 07:09:51;;;;;;;;;;;;;;;;;;5112872;28;1249;-66
2022/06/09 07:12:17;;;;;;;;;;;;;;;;;;5111234;28;1170;-66
2022/06/09 07:14:42;;;;;;;;;;;;;;;;;;5113576;28;805;-66
2022/06/09 07:17:07;;;;;;;;;;;;;;;;;;5112489;28;1894;-66
2022/06/09 07:19:32;;;;;;;;;;;;;;;;;;5113163;28;975;-66
2022/06/09 07:21:58;;;;;;;;;;;;;;;;;;5113187;28;887;-66
2022/06/09 07:24:24;;;;;;;;;;;;;;;;;;5111320;28;1186;-66
2022/06/09 07:26:50;;;;;;;;;;;;;;;;;;5111637;28;1214;-66
2022/06/09 07:29:16;;;;;;;;;;;;;;;;;;5112866;28;943;-66
2022/06/09 07:31:41;;;;;;;;;;;;;;;;;;5112915;28;848;-66
2022/06/09 07:34:07;;;;;;;;;;;;;;;;;;5112099;28;868;-66
2022/06/09 07:36:32;;;;;;;;;;;;;;;;;;5111606;28;1972;-66
2022/06/09 07:38:57;;;;;;;;;;;;;;;;;;5113479;28;1082;-66
2022/06/09 07:41:22;;;;;;;;;;;;;;;;;;5113104;28;911;-66
2022/06/09 07:43:48;;;;;;;;;;;;;;;;;;5113135;28;848;-66
2022/06/09 07:46:15;;;;;;;;;;;;;;;;;;5112772;28;920;-66
2022/06/09 07:48:40;;;;;;;;;;;;;;;;;;5111427;28;1216;-66
2022/06/09 07:51:05;;;;;;;;;;;;;;;;;;5111093;28;937;-66
2022/06/09 07:53:31;;;;;;;;;;;;;;;;;;5112340;28;1006;-66
2022/06/09 07:55:56;;;;;;;;;;;;;;;;;;5112702;28;891;-66
2022/06/09 07:58:22;;;;;;;;;;;;;;;;;;5111067;28;1959;-66
2022/06/09 08:00:48;;;;;;;;;;;;;;;;;;5110828;28;805;-66
2022/06/09 08:03:21;;;;;;;;;;;;;;;;;;5111888;28;828;-66
2022/06/09 08:05:47;;;;;;;;;;;;;;;;;;5112158;27;903;-66
2022/06/09 08:08:12;;;;;;;;;;;;;;;;;;5110691;28;1280;-66
2022/06/09 08:10:39;;;;;;;;;;;;;;;;;;5110975;28;1359;-66
2022/06/09 08:13:04;;;;;;;;;;;;;;;;;;5110985;28;1229;-66
2022/06/09 08:15:30;;;;;;;;;;;;;;;;;;5110485;28;1154;-66
2022/06/09 08:17:56;;;;;;;;;;;;;;;;;;5111144;28;1956;-66
2022/06/09 08:20:23;;;;;;;;;;;;;;;;;;5093266;28;1107;-66
2022/06/09 08:22:49;;;;;;;;;;;;;;;;;;5110011;28;1256;-66
2022/06/09 08:25:16;;;;;;;;;;;;;;;;;;5110649;28;978;-66
2022/06/09 08:27:41;;;;;;;;;;;;;;;;;;5111582;28;1512;-66
2022/06/09 08:30:08;;;;;;;;;;;;;;;;;;5112393;28;950;-66
2022/06/09 08:32:34;;;;;;;;;;;;;;;;;;5111289;28;1281;-66
2022/06/09 08:34:59;;;;;;;;;;;;;;;;;;5111030;28;1138;-66
2022/06/09 08:37:25;;;;;;;;;;;;;;;;;;5093854;28;1898;-66
2022/06/09 08:39:50;;;;;;;;;;;;;;;;;;5112428;28;811;-66
2022/06/09 08:42:26;;;;;;;;;;;;;;;;;;5112326;28;875;-66
2022/06/09 08:44:52;;;;;;;;;;;;;;;;;;5111282;28;1323;-66
2022/06/09 08:47:17;;;;;;;;;;;;;;;;;;5112399;28;975;-66
2022/06/09 08:50:01;;;;;;;;;;;;;;;;;;5112485;28;761;-66
2022/06/09 08:52:39;;;;;;;;;;;;;;;;;;5112079;28;1555;-66
2022/06/09 08:55:15;;;;;;;;;;;;;;;;;;5110628;28;1301;-65
2022/06/09 08:57:42;;;;;;;;;;;;;;;;;;5111687;28;1984;-66
2022/06/09 09:00:13;;;;;;;;;;;;;;;;;;5111497;28;954;-66
2022/06/09 09:02:39;;;;;;;;;;;;;;;;;;5112093;28;855;-66
2022/06/09 09:05:20;;;;;;;;;;;;;;;;;;5111871;28;895;-66
2022/06/09 09:07:47;;;;;;;;;;;;;;;;;;5111074;28;1603;-66
2022/06/09 09:10:12;;;;;;;;;;;;;;;;;;5111422;28;985;-66
2022/06/09 09:12:49;;;;;;;;;;;;;;;;;;5111717;28;864;-66
2022/06/09 09:15:33;;;;;;;;;;;;;;;;;;5110828;28;1057;-67
2022/06/09 09:18:07;;;;;;;;;;;;;;;;;;5110732;28;1967;-66
2022/06/09 09:20:35;;;;;;;;;;;;;;;;;;5111080;28;935;-66
2022/06/09 09:23:04;;;;;;;;;;;;;;;;;;5109323;28;1202;-66
2022/06/09 09:25:48;;;;;;;;;;;;;;;;;;5111074;28;1002;-66
2022/06/09 09:28:13;;;;;;;;;;;;;;;;;;5110609;28;916;-66
2022/06/09 09:30:57;;;;;;;;;;;;;;;;;;5111224;28;954;-66
2022/06/09 09:33:22;;;;;;;;;;;;;;;;;;5110810;28;796;-66
2022/06/09 09:35:49;;;;;;;;;;;;;;;;;;5111979;28;876;-66
2022/06/09 09:38:16;;;;;;;;;;;;;;;;;;5114751;28;1922;-66
2022/06/09 09:40:43;;;;;;;;;;;;;;;;;;5115447;27;868;-66
2022/06/09 09:43:10;;;;;;;;;;;;;;;;;;5113581;28;1686;-66
2022/06/09 09:45:38;;;;;;;;;;;;;;;;;;5115404;28;878;-67
2022/06/09 09:48:06;;;;;;;;;;;;;;;;;;5115204;28;871;-67
2022/06/09 09:50:51;;;;;;;;;;;;;;;;;;5114021;28;1256;-67
2022/06/09 09:53:19;;;;;;;;;;;;;;;;;;5113139;28;1348;-67
2022/06/09 09:56:07;;;;;;;;;;;;;;;;;;5115346;28;899;-67
2022/06/09 09:58:39;;;;;;;;;;;;;;;;;;5115528;28;1906;-66
2022/06/09 10:01:06;;;;;;;;;;;;;;;;;;5113912;28;1237;-66
2022/06/09 10:09:19;;;;;;;;;;;;;;;;;;5115711;28;706;-67
2022/06/09 10:11:55;;;;;;;;;;;;;;;;;;5115699;28;1000;-66
2022/06/09 10:14:26;;;;;;;;;;;;;;;;;;5115506;28;962;-67
2022/06/09 10:16:52;;;;;;;;;;;;;;;;;;5115293;28;1890;-67
2022/06/09 10:19:20;;;;;;;;;;;;;;;;;;5115638;28;769;-66
2022/06/09 10:21:48;;;;;;;;;;;;;;;;;;5115794;28;824;-66
2022/06/09 10:24:15;;;;;;;;;;;;;;;;;;5114791;28;769;-67
2022/06/09 10:26:41;;;;;;;;;;;;;;;;;;5113895;28;1213;-66
2022/06/09 10:29:22;;;;;;;;;;;;;;;;;;5113324;28;1250;-66
2022/06/09 10:31:50;;;;;;;;;;;;;;;;;;5115087;28;899;-64
2022/06/09 10:34:34;;;;;;;;;;;;;;;;;;5114266;28;902;-65
2022/06/09 10:37:09;;;;;;;;;;;;;;;;;;5114440;28;1917;-67
2022/06/09 10:39:54;;;;;;;;;;;;;;;;;;5113423;28;1218;-66
2022/06/09 10:42:19;;;;;;;;;;;;;;;;;;5114537;28;888;-66
2022/06/09 10:45:14;;;;;;;;;;;;;;;;;;5114295;28;958;-66
2022/06/09 10:56:45;;;;;;;;;;;;;;;;;;5114100;28;663;-67
2022/06/09 10:59:16;;;;;;;;;;;;;;;;;;5107754;28;1279;-66
2022/06/09 11:01:42;;;;;;;;;;;;;;;;;;5115209;28;907;-66
2022/06/09 11:04:12;;;;;;;;;;;;;;;;;;5114654;28;994;-66
2022/06/09 11:06:44;;;;;;;;;;;;;;;;;;5114675;28;979;-66
2022/06/09 11:09:12;;;;;;;;;;;;;;;;;;5112133;28;1190;-67
2022/06/09 11:11:43;;;;;;;;;;;;;;;;;;5114211;28;918;-68
2022/06/09 11:14:15;;;;;;;;;;;;;;;;;;5112110;28;1202;-66
2022/06/09 11:16:50;;;;;;;;;;;;;;;;;;5114272;28;1897;-66
2022/06/09 11:19:15;;;;;;;;;;;;;;;;;;5113323;28;1140;-67
2022/06/09 11:21:58;;;;;;;;;;;;;;;;;;5114386;28;797;-66
2022/06/09 11:24:32;;;;;;;;;;;;;;;;;;5113336;28;848;-66
2022/06/09 11:27:05;;;;;;;;;;;;;;;;;;5113797;28;841;-66
2022/06/09 11:29:57;;;;;;;;;;;;;;;;;;5113210;28;898;-66
2022/06/09 11:32:28;;;;;;;;;;;;;;;;;;5113005;28;849;-67
2022/06/09 11:34:54;;;;;;;;;;;;;;;;;;5113434;28;911;-67
2022/06/09 11:37:29;;;;;;;;;;;;;;;;;;5112834;28;1918;-66
2022/06/09 11:39:57;;;;;;;;;;;;;;;;;;5113956;28;840;-66
2022/06/09 11:42:27;;;;;;;;;;;;;;;;;;5113639;28;1081;-66
2022/06/09 11:44:55;;;;;;;;;;;;;;;;;;5114116;28;793;-66
2022/06/09 11:47:24;;;;;;;;;;;;;;;;;;5112036;28;1218;-66
2022/06/09 11:49:49;;;;;;;;;;;;;;;;;;5112564;28;1293;-66
2022/06/09 11:52:23;;;;;;;;;;;;;;;;;;5112705;28;855;-66
2022/06/09 11:54:48;;;;;;;;;;;;;;;;;;5113637;28;761;-66
2022/06/09 11:57:16;;;;;;;;;;;;;;;;;;5112998;28;1889;-66
2022/06/09 11:59:51;;;;;;;;;;;;;;;;;;5111604;28;1214;-66
2022/06/09 12:02:26;;;;;;;;;;;;;;;;;;5112720;28;1030;-67
2022/06/09 12:04:51;;;;;;;;;;;;;;;;;;5113303;28;847;-66
2022/06/09 12:07:25;;;;;;;;;;;;;;;;;;5112464;28;777;-66
2022/06/09 12:10:09;;;;;;;;;;;;;;;;;;5110960;28;1207;-66
2022/06/09 12:12:37;;;;;;;;;;;;;;;;;;5112546;28;1014;-66
2022/06/09 12:15:11;;;;;;;;;;;;;;;;;;5112578;28;837;-66
2022/06/09 12:17:37;;;;;;;;;;;;;;;;;;5111405;28;1953;-66
2022/06/09 12:20:08;;;;;;;;;;;;;;;;;;5112562;28;867;-66
2022/06/09 12:22:45;;;;;;;;;;;;;;;;;;5111003;28;1403;-66
2022/06/09 12:25:11;;;;;;;;;;;;;;;;;;5111683;28;1131;-66
2022/06/09 12:27:40;;;;;;;;;;;;;;;;;;5112875;28;781;-66
2022/06/09 12:30:26;;;;;;;;;;;;;;;;;;5112671;28;919;-66
2022/06/09 12:33:11;;;;;;;;;;;;;;;;;;5112485;28;1087;-66
2022/06/09 12:35:40;;;;;;;;;;;;;;;;;;5111342;28;1138;-66
2022/06/09 12:38:21;;;;;;;;;;;;;;;;;;5112104;28;1890;-66
2022/06/09 12:40:48;;;;;;;;;;;;;;;;;;5111443;28;1190;-66
2022/06/09 12:43:32;;;;;;;;;;;;;;;;;;5112094;27;849;-66
2022/06/09 12:45:59;;;;;;;;;;;;;;;;;;5112559;28;824;-66
2022/06/09 12:48:27;;;;;;;;;;;;;;;;;;5110170;28;1269;-66
2022/06/09 12:50:52;;;;;;;;;;;;;;;;;;5110603;28;1175;-66
2022/06/09 12:53:21;;;;;;;;;;;;;;;;;;5108871;28;1209;-66
2022/06/09 12:55:54;;;;;;;;;;;;;;;;;;5112099;28;806;-66
2022/06/09 12:58:21;;;;;;;;;;;;;;;;;;5109883;28;1910;-66
2022/06/09 13:00:50;;;;;;;;;;;;;;;;;;5112326;28;884;-66
2022/06/09 13:03:21;;;;;;;;;;;;;;;;;;5111219;28;904;-66
2022/06/09 13:05:46;;;;;;;;;;;;;;;;;;5111579;28;922;-66
2022/06/09 13:08:17;;;;;;;;;;;;;;;;;;5111499;28;879;-66
2022/06/09 13:10:45;;;;;;;;;;;;;;;;;;5111250;28;966;-66
2022/06/09 13:13:25;;;;;;;;;;;;;;;;;;5111747;28;872;-66
2022/06/09 13:15:54;;;;;;;;;;;;;;;;;;5111746;28;879;-66
2022/06/09 13:18:21;;;;;;;;;;;;;;;;;;5111223;28;1971;-66
2022/06/09 13:21:06;;;;;;;;;;;;;;;;;;5112075;28;816;-66
2022/06/09 13:23:32;;;;;;;;;;;;;;;;;;5103832;28;1257;-66
2022/06/09 13:25:58;;;;;;;;;;;;;;;;;;5110545;28;1155;-66
2022/06/09 13:28:28;;;;;;;;;;;;;;;;;;5093491;28;1202;-66
2022/06/09 13:30:54;;;;;;;;;;;;;;;;;;5110627;28;789;-66
2022/06/09 13:33:24;;;;;;;;;;;;;;;;;;5111664;28;997;-67
2022/06/09 13:35:52;;;;;;;;;;;;;;;;;;5110430;28;1665;-66
2022/06/09 13:38:20;;;;;;;;;;;;;;;;;;5111290;28;1973;-66
2022/06/09 13:40:51;;;;;;;;;;;;;;;;;;5109906;28;1411;-66
2022/06/09 13:43:20;;;;;;;;;;;;;;;;;;5111260;28;801;-66
2022/06/09 13:45:53;;;;;;;;;;;;;;;;;;5111343;28;1113;-66
2022/06/09 13:48:38;;;;;;;;;;;;;;;;;;5110821;28;824;-66
2022/06/09 13:51:03;;;;;;;;;;;;;;;;;;5111279;28;1161;-66
2022/06/09 13:53:38;;;;;;;;;;;;;;;;;;5110685;28;867;-66
2022/06/09 13:56:07;;;;;;;;;;;;;;;;;;5109604;28;1466;-66
2022/06/09 13:58:32;;;;;;;;;;;;;;;;;;5109386;28;1957;-66
2022/06/09 14:00:59;;;;;;;;;;;;;;;;;;5111457;28;867;-66
2022/06/09 14:03:26;;;;;;;;;;;;;;;;;;5110270;28;896;-66
2022/06/09 14:05:54;;;;;;;;;;;;;;;;;;5110748;28;904;-66
2022/06/09 14:08:21;;;;;;;;;;;;;;;;;;5109200;28;1368;-66
2022/06/09 14:10:48;;;;;;;;;;;;;;;;;;5109167;28;1209;-66
2022/06/09 14:13:13;;;;;;;;;;;;;;;;;;5110833;28;868;-66
2022/06/09 14:15:40;;;;;;;;;;;;;;;;;;5109204;28;1191;-66
2022/06/09 14:18:07;;;;;;;;;;;;;;;;;;5109121;28;1902;-66
2022/06/09 14:20:33;;;;;;;;;;;;;;;;;;5110843;28;903;-67
2022/06/09 14:22:59;;;;;;;;;;;;;;;;;;5112303;28;1186;-66
2022/06/09 14:25:25;;;;;;;;;;;;;;;;;;5114323;28;871;-66
2022/06/09 14:27:51;;;;;;;;;;;;;;;;;;5114127;28;990;-66
2022/06/09 14:30:17;;;;;;;;;;;;;;;;;;5112979;28;1100;-66
2022/06/09 14:32:43;;;;;;;;;;;;;;;;;;5114222;28;720;-66
2022/06/09 14:35:08;;;;;;;;;;;;;;;;;;5095746;28;982;-66
2022/06/09 14:37:34;;;;;;;;;;;;;;;;;;5112542;28;1909;-66
2022/06/09 14:40:00;;;;;;;;;;;;;;;;;;5114320;28;879;-67
2022/06/09 14:42:25;;;;;;;;;;;;;;;;;;5112752;28;1282;-66
2022/06/09 14:44:50;;;;;;;;;;;;;;;;;;5112640;28;774;-66
2022/06/09 14:47:20;;;;;;;;;;;;;;;;;;5099756;27;1587;-66
2022/06/09 14:49:45;;;;;;;;;;;;;;;;;;5139308;27;1803;-66
2022/06/09 14:52:12;;;;;;;;;;;;;;;;;;5114154;28;1167;-66
2022/06/09 14:54:38;;;;;;;;;;;;;;;;;;5115060;28;947;-66
2022/06/09 14:57:04;;;;;;;;;;;;;;;;;;5113389;28;1947;-66
2022/06/09 14:59:29;;;;;;;;;;;;;;;;;;5115217;28;844;-66
2022/06/09 15:01:55;;;;;;;;;;;;;;;;;;5114463;28;1010;-66
2022/06/09 15:04:20;;;;;;;;;;;;;;;;;;5114799;28;848;-66
2022/06/09 15:06:45;;;;;;;;;;;;;;;;;;5114417;28;868;-66
2022/06/09 15:09:11;;;;;;;;;;;;;;;;;;5114368;28;848;-66
2022/06/09 15:11:36;;;;;;;;;;;;;;;;;;5115272;28;904;-66
2022/06/09 15:14:02;;;;;;;;;;;;;;;;;;5109652;28;1088;-66
2022/06/09 15:16:29;;;;;;;;;;;;;;;;;;5092491;28;1148;-66
2022/06/09 15:18:55;;;;;;;;;;;;;;;;;;5091773;28;1898;-66
2022/06/09 15:21:20;;;;;;;;;;;;;;;;;;5102288;28;1155;-66
2022/06/09 15:23:48;;;;;;;;;;;;;;;;;;5111321;27;1135;-65
2022/06/09 15:26:14;;;;;;;;;;;;;;;;;;5109900;28;1511;-65
2022/06/09 15:28:39;;;;;;;;;;;;;;;;;;5111806;28;1280;-65
2022/06/09 15:31:04;;;;;;;;;;;;;;;;;;5111278;28;1135;-66
2022/06/09 15:33:30;;;;;;;;;;;;;;;;;;5108648;28;1138;-66
2022/06/09 15:35:56;;;;;;;;;;;;;;;;;;5106466;28;1148;-65
2022/06/09 15:38:22;;;;;;;;;;;;;;;;;;5099078;28;2261;-66
2022/06/09 15:40:48;;;;;;;;;;;;;;;;;;5099748;28;1241;-66
2022/06/09 15:43:14;;;;;;;;;;;;;;;;;;5091971;28;1265;-66
2022/06/09 15:45:41;;;;;;;;;;;;;;;;;;5091600;28;1298;-66
2022/06/09 15:48:08;;;;;;;;;;;;;;;;;;5091523;28;1266;-66
2022/06/09 15:50:33;;;;;;;;;;;;;;;;;;5092916;28;1214;-66
2022/06/09 15:52:59;;;;;;;;;;;;;;;;;;5093164;28;856;-66
2022/06/09 15:55:24;;;;;;;;;;;;;;;;;;5092722;28;995;-66
2022/06/09 15:57:49;;;;;;;;;;;;;;;;;;5092946;28;1897;-66
2022/06/09 16:00:27;;;;;;;;;;;;;;;;;;5090651;28;1106;-66
2022/06/09 16:02:52;;;;;;;;;;;;;;;;;;5092976;28;865;-65
2022/06/09 16:05:18;;;;;;;;;;;;;;;;;;5092579;28;821;-66
2022/06/09 16:07:45;;;;;;;;;;;;;;;;;;5091089;28;923;-65
2022/06/09 16:10:14;;;;;;;;;;;;;;;;;;5091022;28;1207;-66
2022/06/09 16:12:40;;;;;;;;;;;;;;;;;;5090986;28;1311;-66
2022/06/09 16:15:05;;;;;;;;;;;;;;;;;;5092227;28;892;-67
2022/06/09 16:17:31;;;;;;;;;;;;;;;;;;5092029;28;1905;-66
2022/06/09 16:19:56;;;;;;;;;;;;;;;;;;5092777;28;947;-67
2022/06/09 16:22:21;;;;;;;;;;;;;;;;;;5090965;28;868;-66
2022/06/09 16:24:47;;;;;;;;;;;;;;;;;;5090896;28;853;-66
2022/06/09 16:27:12;;;;;;;;;;;;;;;;;;5090561;28;1014;-66
2022/06/09 16:29:37;;;;;;;;;;;;;;;;;;5090999;28;1131;-66
2022/06/09 16:32:03;;;;;;;;;;;;;;;;;;5090932;28;1174;-66
2022/06/09 16:34:28;;;;;;;;;;;;;;;;;;5092166;28;893;-66
2022/06/09 16:36:53;;;;;;;;;;;;;;;;;;5092112;28;1909;-66
2022/06/09 16:39:19;;;;;;;;;;;;;;;;;;5092021;28;963;-66
2022/06/09 16:41:44;;;;;;;;;;;;;;;;;;5092461;28;873;-66
2022/06/09 16:44:10;;;;;;;;;;;;;;;;;;5090410;28;832;-66
2022/06/09 16:46:35;;;;;;;;;;;;;;;;;;5091760;28;857;-66
2022/06/09 16:49:00;;;;;;;;;;;;;;;;;;5090697;28;1363;-66
2022/06/09 16:51:26;;;;;;;;;;;;;;;;;;5074076;28;1176;-66
2022/06/09 16:53:52;;;;;;;;;;;;;;;;;;5074588;28;1203;-66
2022/06/09 16:56:17;;;;;;;;;;;;;;;;;;5090261;28;935;-66
2022/06/09 16:58:44;;;;;;;;;;;;;;;;;;5091987;28;1897;-66
2022/06/09 17:01:09;;;;;;;;;;;;;;;;;;5090858;28;844;-66
2022/06/09 17:03:35;;;;;;;;;;;;;;;;;;5092315;28;845;-66
2022/06/09 17:06:02;;;;;;;;;;;;;;;;;;5091391;28;932;-67
2022/06/09 17:08:30;;;;;;;;;;;;;;;;;;5091691;28;849;-66
2022/06/09 17:10:55;;;;;;;;;;;;;;;;;;5091542;28;999;-66
2022/06/09 17:13:21;;;;;;;;;;;;;;;;;;5089561;28;1003;-66
2022/06/09 17:15:47;;;;;;;;;;;;;;;;;;5091660;28;868;-67
2022/06/09 17:18:13;;;;;;;;;;;;;;;;;;5090676;28;1914;-66
2022/06/09 17:20:39;;;;;;;;;;;;;;;;;;5091781;28;1034;-66
2022/06/09 17:23:05;;;;;;;;;;;;;;;;;;5090115;28;903;-66
2022/06/09 17:25:31;;;;;;;;;;;;;;;;;;5091003;28;911;-66
2022/06/09 17:27:56;;;;;;;;;;;;;;;;;;5091125;28;848;-66
2022/06/09 17:30:21;;;;;;;;;;;;;;;;;;5073041;28;1199;-66
2022/06/09 17:32:46;;;;;;;;;;;;;;;;;;5091561;28;900;-70
2022/06/09 17:35:12;;;;;;;;;;;;;;;;;;5089528;28;1301;-69
2022/06/09 17:37:37;;;;;;;;;;;;;;;;;;5091528;28;1977;-69